sensor_id;sensor_type;location;lat;lon;timestamp;temperature;humidity
12321;DHT22;6225;52.720;8.276;2022-07-23T00:01:43;16.00;99.90
12321;DHT22;6225;52.720;8.276;2022-07-23T00:04:27;16.00;99.90
12321;DHT22;6225;52.720;8.276;2022-07-23T00:07:11;15.90;99.90
12321;DHT22;6225;52.720;8.276;2022-07-23T00:09:55;15.90;99.90
12321;DHT22;6225;52.720;8.276;2022-07-23T00:12:40;15.80;99.90
12321;DHT22;6225;52.720;8.276;2022-07-23T00:15:24;15.80;99.90
12321;DHT22;6225;52.720;8.276;2022-07-23T00:18:08;15.80;99.90
12321;DHT22;6225;52.720;8.276;2022-07-23T00:20:52;15.80;99.90
12321;DHT22;6225;52.720;8.276;2022-07-23T00:23:36;15.80;99.90
12321;DHT22;6225;52.720;8.276;2022-07-23T00:26:20;15.80;99.90
12321;DHT22;6225;52.720;8.276;2022-07-23T00:29:04;15.80;99.90
12321;DHT22;6225;52.720;8.276;2022-07-23T00:31:48;15.80;99.90
12321;DHT22;6225;52.720;8.276;2022-07-23T00:34:32;15.70;99.90
12321;DHT22;6225;52.720;8.276;2022-07-23T00:37:17;15.70;99.90
12321;DHT22;6225;52.720;8.276;2022-07-23T00:40:00;15.60;99.90
12321;DHT22;6225;52.720;8.276;2022-07-23T00:42:45;15.60;99.90
12321;DHT22;6225;52.720;8.276;2022-07-23T00:45:30;15.60;99.90
12321;DHT22;6225;52.720;8.276;2022-07-23T00:48:14;15.50;99.90
12321;DHT22;6225;52.720;8.276;2022-07-23T00:50:58;15.60;99.90
12321;DHT22;6225;52.720;8.276;2022-07-23T00:53:44;15.60;99.90
12321;DHT22;6225;52.720;8.276;2022-07-23T00:56:29;15.60;99.90
12321;DHT22;6225;52.720;8.276;2022-07-23T00:59:14;15.60;99.90
12321;DHT22;6225;52.720;8.276;2022-07-23T01:01:58;15.60;99.90
12321;DHT22;6225;52.720;8.276;2022-07-23T01:04:42;15.60;99.90
12321;DHT22;6225;52.720;8.276;2022-07-23T01:07:27;15.60;99.90
12321;DHT22;6225;52.720;8.276;2022-07-23T01:10:12;15.60;99.90
12321;DHT22;6225;52.720;8.276;2022-07-23T01:13:15;15.60;99.90
12321;DHT22;6225;52.720;8.276;2022-07-23T01:15:59;15.60;99.90
12321;DHT22;6225;52.720;8.276;2022-07-23T01:18:43;15.60;99.90
12321;DHT22;6225;52.720;8.276;2022-07-23T01:21:27;15.60;99.90
12321;DHT22;6225;52.720;8.276;2022-07-23T01:24:12;15.60;99.90
12321;DHT22;6225;52.720;8.276;2022-07-23T01:26:57;15.60;99.90
12321;DHT22;6225;52.720;8.276;2022-07-23T01:29:41;15.60;99.90
12321;DHT22;6225;52.720;8.276;2022-07-23T01:32:25;15.60;99.90
12321;DHT22;6225;52.720;8.276;2022-07-23T01:35:09;15.60;99.90
12321;DHT22;6225;52.720;8.276;2022-07-23T01:37:54;15.70;99.90
12321;DHT22;6225;52.720;8.276;2022-07-23T01:40:38;15.60;99.90
12321;DHT22;6225;52.720;8.276;2022-07-23T01:43:22;15.70;99.90
12321;DHT22;6225;52.720;8.276;2022-07-23T01:46:06;15.70;99.90
12321;DHT22;6225;52.720;8.276;2022-07-23T01:48:50;15.70;99.90
12321;DHT22;6225;52.720;8.276;2022-07-23T01:51:34;15.70;99.90
12321;DHT22;6225;52.720;8.276;2022-07-23T01:54:18;15.70;99.90
12321;DHT22;6225;52.720;8.276;2022-07-23T01:57:02;15.70;99.90
12321;DHT22;6225;52.720;8.276;2022-07-23T01:59:47;15.70;99.90
12321;DHT22;6225;52.720;8.276;2022-07-23T02:02:31;15.70;99.90
12321;DHT22;6225;52.720;8.276;2022-07-23T02:05:15;15.70;99.90
12321;DHT22;6225;52.720;8.276;2022-07-23T02:08:00;15.80;99.90
12321;DHT22;6225;52.720;8.276;2022-07-23T02:10:44;15.80;99.90
12321;DHT22;6225;52.720;8.276;2022-07-23T02:13:29;15.80;99.90
12321;DHT22;6225;52.720;8.276;2022-07-23T02:16:13;15.70;99.90
12321;DHT22;6225;52.720;8.276;2022-07-23T02:18:57;15.70;99.90
12321;DHT22;6225;52.720;8.276;2022-07-23T02:21:41;15.70;99.90
12321;DHT22;6225;52.720;8.276;2022-07-23T02:24:25;15.70;99.90
12321;DHT22;6225;52.720;8.276;2022-07-23T02:27:09;15.70;99.90
12321;DHT22;6225;52.720;8.276;2022-07-23T02:29:54;15.60;99.90
12321;DHT22;6225;52.720;8.276;2022-07-23T02:32:38;15.60;99.90
12321;DHT22;6225;52.720;8.276;2022-07-23T02:35:23;15.60;99.90
12321;DHT22;6225;52.720;8.276;2022-07-23T02:38:07;15.60;99.90
12321;DHT22;6225;52.720;8.276;2022-07-23T02:40:52;15.60;99.90
12321;DHT22;6225;52.720;8.276;2022-07-23T02:43:36;15.60;99.90
12321;DHT22;6225;52.720;8.276;2022-07-23T02:46:20;15.60;99.90
12321;DHT22;6225;52.720;8.276;2022-07-23T02:49:04;15.60;99.90
12321;DHT22;6225;52.720;8.276;2022-07-23T02:51:48;15.60;99.90
12321;DHT22;6225;52.720;8.276;2022-07-23T02:54:33;15.60;99.90
12321;DHT22;6225;52.720;8.276;2022-07-23T02:57:16;15.60;99.90
12321;DHT22;6225;52.720;8.276;2022-07-23T03:00:01;15.60;99.90
12321;DHT22;6225;52.720;8.276;2022-07-23T03:02:45;15.50;99.90
12321;DHT22;6225;52.720;8.276;2022-07-23T03:05:29;15.50;99.90
12321;DHT22;6225;52.720;8.276;2022-07-23T03:08:13;15.50;99.90
12321;DHT22;6225;52.720;8.276;2022-07-23T03:10:57;15.50;99.90
12321;DHT22;6225;52.720;8.276;2022-07-23T03:13:41;15.50;99.90
12321;DHT22;6225;52.720;8.276;2022-07-23T03:16:25;15.40;99.90
12321;DHT22;6225;52.720;8.276;2022-07-23T03:19:09;15.40;99.90
12321;DHT22;6225;52.720;8.276;2022-07-23T03:21:53;15.40;99.90
12321;DHT22;6225;52.720;8.276;2022-07-23T03:24:37;15.40;99.90
12321;DHT22;6225;52.720;8.276;2022-07-23T03:27:40;15.40;99.90
12321;DHT22;6225;52.720;8.276;2022-07-23T03:30:24;15.30;99.90
12321;DHT22;6225;52.720;8.276;2022-07-23T03:33:08;15.30;99.90
12321;DHT22;6225;52.720;8.276;2022-07-23T03:35:52;15.20;99.90
12321;DHT22;6225;52.720;8.276;2022-07-23T03:38:36;15.20;99.90
12321;DHT22;6225;52.720;8.276;2022-07-23T03:41:20;15.10;99.90
12321;DHT22;6225;52.720;8.276;2022-07-23T03:44:04;15.10;99.90
12321;DHT22;6225;52.720;8.276;2022-07-23T03:46:48;15.00;99.90
12321;DHT22;6225;52.720;8.276;2022-07-23T03:49:34;15.00;99.90
12321;DHT22;6225;52.720;8.276;2022-07-23T03:52:18;15.00;99.90
12321;DHT22;6225;52.720;8.276;2022-07-23T03:55:03;15.00;99.90
12321;DHT22;6225;52.720;8.276;2022-07-23T03:57:48;14.90;99.90
12321;DHT22;6225;52.720;8.276;2022-07-23T04:00:32;14.90;99.90
12321;DHT22;6225;52.720;8.276;2022-07-23T04:03:16;14.80;99.90
12321;DHT22;6225;52.720;8.276;2022-07-23T04:06:00;14.80;99.90
12321;DHT22;6225;52.720;8.276;2022-07-23T04:08:44;14.80;99.90
12321;DHT22;6225;52.720;8.276;2022-07-23T04:11:28;14.80;99.90
12321;DHT22;6225;52.720;8.276;2022-07-23T04:14:12;14.80;99.90
12321;DHT22;6225;52.720;8.276;2022-07-23T04:16:57;14.80;99.90
12321;DHT22;6225;52.720;8.276;2022-07-23T04:19:41;14.80;99.90
12321;DHT22;6225;52.720;8.276;2022-07-23T04:22:27;14.80;99.90
12321;DHT22;6225;52.720;8.276;2022-07-23T04:25:11;14.80;99.90
12321;DHT22;6225;52.720;8.276;2022-07-23T04:27:57;14.80;99.90
12321;DHT22;6225;52.720;8.276;2022-07-23T04:30:41;14.80;99.90
12321;DHT22;6225;52.720;8.276;2022-07-23T04:33:26;14.80;99.90
12321;DHT22;6225;52.720;8.276;2022-07-23T04:36:10;14.80;99.90
12321;DHT22;6225;52.720;8.276;2022-07-23T04:38:54;14.80;99.90
12321;DHT22;6225;52.720;8.276;2022-07-23T04:41:38;14.80;99.90
12321;DHT22;6225;52.720;8.276;2022-07-23T04:44:23;14.80;99.90
12321;DHT22;6225;52.720;8.276;2022-07-23T04:47:07;14.70;99.90
12321;DHT22;6225;52.720;8.276;2022-07-23T04:49:51;14.70;99.90
12321;DHT22;6225;52.720;8.276;2022-07-23T04:52:34;14.70;99.90
12321;DHT22;6225;52.720;8.276;2022-07-23T04:55:19;14.70;99.90
12321;DHT22;6225;52.720;8.276;2022-07-23T04:58:02;14.70;99.90
12321;DHT22;6225;52.720;8.276;2022-07-23T05:00:47;14.70;99.90
12321;DHT22;6225;52.720;8.276;2022-07-23T05:03:31;14.70;99.90
12321;DHT22;6225;52.720;8.276;2022-07-23T05:06:16;14.80;99.90
12321;DHT22;6225;52.720;8.276;2022-07-23T05:09:00;14.80;99.90
12321;DHT22;6225;52.720;8.276;2022-07-23T05:11:44;14.80;99.90
12321;DHT22;6225;52.720;8.276;2022-07-23T05:14:28;14.80;99.90
12321;DHT22;6225;52.720;8.276;2022-07-23T05:17:12;14.90;99.90
12321;DHT22;6225;52.720;8.276;2022-07-23T05:19:57;14.90;99.90
12321;DHT22;6225;52.720;8.276;2022-07-23T05:22:41;14.90;99.90
12321;DHT22;6225;52.720;8.276;2022-07-23T05:25:25;14.90;99.90
12321;DHT22;6225;52.720;8.276;2022-07-23T05:28:10;15.00;99.90
12321;DHT22;6225;52.720;8.276;2022-07-23T05:30:53;15.00;99.90
12321;DHT22;6225;52.720;8.276;2022-07-23T05:33:37;15.10;99.90
12321;DHT22;6225;52.720;8.276;2022-07-23T05:36:21;15.10;99.90
12321;DHT22;6225;52.720;8.276;2022-07-23T05:39:05;15.20;99.90
12321;DHT22;6225;52.720;8.276;2022-07-23T05:41:49;15.20;99.90
12321;DHT22;6225;52.720;8.276;2022-07-23T05:44:34;15.30;99.90
12321;DHT22;6225;52.720;8.276;2022-07-23T05:47:18;15.30;99.90
12321;DHT22;6225;52.720;8.276;2022-07-23T05:50:03;15.30;99.90
12321;DHT22;6225;52.720;8.276;2022-07-23T05:52:48;15.40;99.90
12321;DHT22;6225;52.720;8.276;2022-07-23T05:55:34;15.40;99.90
12321;DHT22;6225;52.720;8.276;2022-07-23T05:58:18;15.50;99.90
12321;DHT22;6225;52.720;8.276;2022-07-23T06:01:02;15.50;99.90
12321;DHT22;6225;52.720;8.276;2022-07-23T06:03:46;15.50;99.90
12321;DHT22;6225;52.720;8.276;2022-07-23T06:06:30;15.60;99.90
12321;DHT22;6225;52.720;8.276;2022-07-23T06:09:14;15.70;99.90
12321;DHT22;6225;52.720;8.276;2022-07-23T06:11:58;15.80;99.90
12321;DHT22;6225;52.720;8.276;2022-07-23T06:14:42;15.80;99.90
12321;DHT22;6225;52.720;8.276;2022-07-23T06:17:27;15.90;99.90
12321;DHT22;6225;52.720;8.276;2022-07-23T06:20:11;15.90;99.90
12321;DHT22;6225;52.720;8.276;2022-07-23T06:22:55;16.00;99.90
12321;DHT22;6225;52.720;8.276;2022-07-23T06:25:39;16.00;99.90
12321;DHT22;6225;52.720;8.276;2022-07-23T06:28:23;16.10;99.90
12321;DHT22;6225;52.720;8.276;2022-07-23T06:31:07;16.20;99.90
12321;DHT22;6225;52.720;8.276;2022-07-23T06:33:51;16.20;99.90
12321;DHT22;6225;52.720;8.276;2022-07-23T06:36:35;16.30;99.90
12321;DHT22;6225;52.720;8.276;2022-07-23T06:39:20;16.30;99.90
12321;DHT22;6225;52.720;8.276;2022-07-23T06:42:04;16.30;99.90
12321;DHT22;6225;52.720;8.276;2022-07-23T06:44:49;16.40;99.90
12321;DHT22;6225;52.720;8.276;2022-07-23T06:47:34;16.40;99.90
12321;DHT22;6225;52.720;8.276;2022-07-23T06:50:18;16.40;99.90
12321;DHT22;6225;52.720;8.276;2022-07-23T06:53:02;16.50;99.90
12321;DHT22;6225;52.720;8.276;2022-07-23T06:55:46;16.60;99.90
12321;DHT22;6225;52.720;8.276;2022-07-23T06:58:30;16.70;99.90
12321;DHT22;6225;52.720;8.276;2022-07-23T07:01:14;16.70;99.90
12321;DHT22;6225;52.720;8.276;2022-07-23T07:03:58;16.70;99.90
12321;DHT22;6225;52.720;8.276;2022-07-23T07:06:43;16.80;99.90
12321;DHT22;6225;52.720;8.276;2022-07-23T07:09:27;16.80;99.90
12321;DHT22;6225;52.720;8.276;2022-07-23T07:12:11;16.80;99.90
12321;DHT22;6225;52.720;8.276;2022-07-23T07:14:56;16.90;99.90
12321;DHT22;6225;52.720;8.276;2022-07-23T07:17:41;16.90;99.90
12321;DHT22;6225;52.720;8.276;2022-07-23T07:20:26;17.00;99.90
12321;DHT22;6225;52.720;8.276;2022-07-23T07:23:10;17.10;99.90
12321;DHT22;6225;52.720;8.276;2022-07-23T07:25:56;17.10;99.90
12321;DHT22;6225;52.720;8.276;2022-07-23T07:28:40;17.10;99.90
12321;DHT22;6225;52.720;8.276;2022-07-23T07:31:24;17.30;99.90
12321;DHT22;6225;52.720;8.276;2022-07-23T07:34:09;17.30;99.90
12321;DHT22;6225;52.720;8.276;2022-07-23T07:36:53;17.40;99.90
12321;DHT22;6225;52.720;8.276;2022-07-23T07:39:37;17.40;99.90
12321;DHT22;6225;52.720;8.276;2022-07-23T07:42:21;17.40;99.90
12321;DHT22;6225;52.720;8.276;2022-07-23T07:45:05;17.50;99.90
12321;DHT22;6225;52.720;8.276;2022-07-23T07:47:50;17.50;99.90
12321;DHT22;6225;52.720;8.276;2022-07-23T07:50:34;17.50;99.90
12321;DHT22;6225;52.720;8.276;2022-07-23T07:53:18;17.60;99.90
12321;DHT22;6225;52.720;8.276;2022-07-23T07:56:03;17.80;99.90
12321;DHT22;6225;52.720;8.276;2022-07-23T07:58:47;17.80;99.90
12321;DHT22;6225;52.720;8.276;2022-07-23T08:01:31;17.80;99.90
12321;DHT22;6225;52.720;8.276;2022-07-23T08:04:16;17.80;99.90
12321;DHT22;6225;52.720;8.276;2022-07-23T08:07:00;17.90;99.90
12321;DHT22;6225;52.720;8.276;2022-07-23T08:09:44;18.10;99.90
12321;DHT22;6225;52.720;8.276;2022-07-23T08:12:28;18.10;99.90
12321;DHT22;6225;52.720;8.276;2022-07-23T08:15:14;18.20;99.90
12321;DHT22;6225;52.720;8.276;2022-07-23T08:17:59;18.20;99.90
12321;DHT22;6225;52.720;8.276;2022-07-23T08:20:43;18.10;99.90
12321;DHT22;6225;52.720;8.276;2022-07-23T08:23:28;18.10;99.90
12321;DHT22;6225;52.720;8.276;2022-07-23T08:26:12;18.10;99.90
12321;DHT22;6225;52.720;8.276;2022-07-23T08:28:56;18.20;99.90
12321;DHT22;6225;52.720;8.276;2022-07-23T08:31:41;18.20;99.90
12321;DHT22;6225;52.720;8.276;2022-07-23T08:34:25;18.10;99.90
12321;DHT22;6225;52.720;8.276;2022-07-23T08:37:09;18.20;99.90
12321;DHT22;6225;52.720;8.276;2022-07-23T08:39:53;18.30;99.90
12321;DHT22;6225;52.720;8.276;2022-07-23T08:42:38;18.40;99.90
12321;DHT22;6225;52.720;8.276;2022-07-23T08:45:24;18.50;99.90
12321;DHT22;6225;52.720;8.276;2022-07-23T08:48:12;18.50;99.90
12321;DHT22;6225;52.720;8.276;2022-07-23T08:50:59;18.40;99.90
12321;DHT22;6225;52.720;8.276;2022-07-23T08:53:44;18.40;99.90
12321;DHT22;6225;52.720;8.276;2022-07-23T08:56:29;18.50;99.90
12321;DHT22;6225;52.720;8.276;2022-07-23T08:59:13;18.50;99.90
12321;DHT22;6225;52.720;8.276;2022-07-23T09:01:57;18.60;99.90
12321;DHT22;6225;52.720;8.276;2022-07-23T09:04:42;18.60;99.90
12321;DHT22;6225;52.720;8.276;2022-07-23T09:07:26;18.60;99.90
12321;DHT22;6225;52.720;8.276;2022-07-23T09:10:11;18.70;99.90
12321;DHT22;6225;52.720;8.276;2022-07-23T09:12:55;18.70;99.90
12321;DHT22;6225;52.720;8.276;2022-07-23T09:15:51;18.80;99.90
12321;DHT22;6225;52.720;8.276;2022-07-23T09:21:34;18.90;99.90
12321;DHT22;6225;52.720;8.276;2022-07-23T09:24:18;19.10;99.90
12321;DHT22;6225;52.720;8.276;2022-07-23T09:27:04;19.20;99.90
12321;DHT22;6225;52.720;8.276;2022-07-23T09:29:56;19.20;99.90
12321;DHT22;6225;52.720;8.276;2022-07-23T09:32:40;19.20;99.90
12321;DHT22;6225;52.720;8.276;2022-07-23T09:35:49;19.20;99.90
12321;DHT22;6225;52.720;8.276;2022-07-23T09:38:33;19.30;99.90
12321;DHT22;6225;52.720;8.276;2022-07-23T09:41:17;19.30;99.90
12321;DHT22;6225;52.720;8.276;2022-07-23T09:44:16;19.30;99.90
12321;DHT22;6225;52.720;8.276;2022-07-23T09:47:00;19.30;99.90
12321;DHT22;6225;52.720;8.276;2022-07-23T09:50:02;19.40;99.90
12321;DHT22;6225;52.720;8.276;2022-07-23T09:52:49;19.50;99.90
12321;DHT22;6225;52.720;8.276;2022-07-23T09:55:35;19.60;99.90
12321;DHT22;6225;52.720;8.276;2022-07-23T09:58:23;19.70;99.90
12321;DHT22;6225;52.720;8.276;2022-07-23T10:01:10;19.70;99.90
12321;DHT22;6225;52.720;8.276;2022-07-23T10:03:54;19.70;99.90
12321;DHT22;6225;52.720;8.276;2022-07-23T10:06:39;19.70;99.90
12321;DHT22;6225;52.720;8.276;2022-07-23T10:09:28;19.60;99.90
12321;DHT22;6225;52.720;8.276;2022-07-23T10:12:14;19.50;99.90
12321;DHT22;6225;52.720;8.276;2022-07-23T10:15:17;19.50;99.90
12321;DHT22;6225;52.720;8.276;2022-07-23T10:18:01;19.50;99.90
12321;DHT22;6225;52.720;8.276;2022-07-23T10:20:47;19.50;99.90
12321;DHT22;6225;52.720;8.276;2022-07-23T10:24:04;19.50;99.90
12321;DHT22;6225;52.720;8.276;2022-07-23T10:27:13;19.70;99.90
12321;DHT22;6225;52.720;8.276;2022-07-23T10:36:21;19.70;99.90
12321;DHT22;6225;52.720;8.276;2022-07-23T10:39:22;19.80;99.90
12321;DHT22;6225;52.720;8.276;2022-07-23T10:42:13;19.90;99.90
12321;DHT22;6225;52.720;8.276;2022-07-23T10:44:57;19.90;99.90
12321;DHT22;6225;52.720;8.276;2022-07-23T10:47:41;19.90;99.90
12321;DHT22;6225;52.720;8.276;2022-07-23T10:50:28;19.90;99.90
12321;DHT22;6225;52.720;8.276;2022-07-23T10:53:16;20.00;99.90
12321;DHT22;6225;52.720;8.276;2022-07-23T10:56:01;20.10;99.90
12321;DHT22;6225;52.720;8.276;2022-07-23T10:58:47;20.20;99.90
12321;DHT22;6225;52.720;8.276;2022-07-23T11:01:36;20.20;99.90
12321;DHT22;6225;52.720;8.276;2022-07-23T11:04:47;20.30;99.90
12321;DHT22;6225;52.720;8.276;2022-07-23T11:07:33;20.30;99.90
12321;DHT22;6225;52.720;8.276;2022-07-23T11:10:41;20.20;99.90
12321;DHT22;6225;52.720;8.276;2022-07-23T11:16:14;20.20;99.90
12321;DHT22;6225;52.720;8.276;2022-07-23T11:19:02;20.20;99.90
12321;DHT22;6225;52.720;8.276;2022-07-23T11:21:48;20.20;99.90
12321;DHT22;6225;52.720;8.276;2022-07-23T11:24:50;20.20;99.90
12321;DHT22;6225;52.720;8.276;2022-07-23T11:27:42;20.30;99.90
12321;DHT22;6225;52.720;8.276;2022-07-23T11:36:02;20.30;99.90
12321;DHT22;6225;52.720;8.276;2022-07-23T11:38:50;20.40;99.90
12321;DHT22;6225;52.720;8.276;2022-07-23T11:41:45;20.40;99.90
12321;DHT22;6225;52.720;8.276;2022-07-23T11:44:31;20.40;99.90
12321;DHT22;6225;52.720;8.276;2022-07-23T11:47:22;20.50;99.90
12321;DHT22;6225;52.720;8.276;2022-07-23T11:50:07;20.50;99.90
12321;DHT22;6225;52.720;8.276;2022-07-23T11:52:53;20.50;99.90
12321;DHT22;6225;52.720;8.276;2022-07-23T11:55:38;20.60;99.90
12321;DHT22;6225;52.720;8.276;2022-07-23T11:58:22;20.70;99.90
12321;DHT22;6225;52.720;8.276;2022-07-23T12:01:06;20.70;99.90
12321;DHT22;6225;52.720;8.276;2022-07-23T12:03:51;20.70;99.90
12321;DHT22;6225;52.720;8.276;2022-07-23T12:06:38;20.80;99.90
12321;DHT22;6225;52.720;8.276;2022-07-23T12:09:22;20.90;99.90
12321;DHT22;6225;52.720;8.276;2022-07-23T12:12:06;21.00;99.90
12321;DHT22;6225;52.720;8.276;2022-07-23T12:14:57;21.10;99.90
12321;DHT22;6225;52.720;8.276;2022-07-23T12:17:45;21.10;99.90
12321;DHT22;6225;52.720;8.276;2022-07-23T12:20:35;21.10;99.90
12321;DHT22;6225;52.720;8.276;2022-07-23T12:23:21;21.20;99.90
12321;DHT22;6225;52.720;8.276;2022-07-23T12:26:05;21.30;99.90
12321;DHT22;6225;52.720;8.276;2022-07-23T12:28:54;21.40;99.90
12321;DHT22;6225;52.720;8.276;2022-07-23T12:31:38;21.60;99.90
12321;DHT22;6225;52.720;8.276;2022-07-23T12:34:22;21.60;99.90
12321;DHT22;6225;52.720;8.276;2022-07-23T12:37:06;21.60;99.90
12321;DHT22;6225;52.720;8.276;2022-07-23T12:39:50;21.70;99.90
12321;DHT22;6225;52.720;8.276;2022-07-23T12:42:42;21.80;99.90
12321;DHT22;6225;52.720;8.276;2022-07-23T12:45:28;21.80;99.90
12321;DHT22;6225;52.720;8.276;2022-07-23T12:48:53;21.80;99.90
12321;DHT22;6225;52.720;8.276;2022-07-23T12:51:39;21.90;99.90
12321;DHT22;6225;52.720;8.276;2022-07-23T12:54:27;21.80;99.90
12321;DHT22;6225;52.720;8.276;2022-07-23T12:57:12;21.80;99.90
12321;DHT22;6225;52.720;8.276;2022-07-23T13:00:10;21.80;99.90
12321;DHT22;6225;52.720;8.276;2022-07-23T13:02:54;21.80;99.90
12321;DHT22;6225;52.720;8.276;2022-07-23T13:05:38;21.80;99.90
12321;DHT22;6225;52.720;8.276;2022-07-23T13:08:23;21.80;99.90
12321;DHT22;6225;52.720;8.276;2022-07-23T13:11:07;21.80;99.90
12321;DHT22;6225;52.720;8.276;2022-07-23T13:13:51;21.90;99.90
12321;DHT22;6225;52.720;8.276;2022-07-23T13:16:36;21.90;99.90
12321;DHT22;6225;52.720;8.276;2022-07-23T13:19:20;22.00;99.90
12321;DHT22;6225;52.720;8.276;2022-07-23T13:22:08;22.10;99.90
12321;DHT22;6225;52.720;8.276;2022-07-23T13:24:52;22.20;99.90
12321;DHT22;6225;52.720;8.276;2022-07-23T13:27:36;22.20;99.90
12321;DHT22;6225;52.720;8.276;2022-07-23T13:30:20;22.20;99.90
12321;DHT22;6225;52.720;8.276;2022-07-23T13:33:04;22.30;99.90
12321;DHT22;6225;52.720;8.276;2022-07-23T13:35:49;22.30;99.90
12321;DHT22;6225;52.720;8.276;2022-07-23T13:38:34;22.40;99.90
12321;DHT22;6225;52.720;8.276;2022-07-23T13:41:19;22.40;99.90
12321;DHT22;6225;52.720;8.276;2022-07-23T13:44:03;22.40;99.90
12321;DHT22;6225;52.720;8.276;2022-07-23T13:46:47;22.40;99.90
12321;DHT22;6225;52.720;8.276;2022-07-23T13:49:32;22.40;99.90
12321;DHT22;6225;52.720;8.276;2022-07-23T13:52:16;22.40;99.90
12321;DHT22;6225;52.720;8.276;2022-07-23T13:55:02;22.30;99.90
12321;DHT22;6225;52.720;8.276;2022-07-23T13:57:48;22.30;99.90
12321;DHT22;6225;52.720;8.276;2022-07-23T14:00:34;22.20;99.90
12321;DHT22;6225;52.720;8.276;2022-07-23T14:03:21;22.20;99.90
12321;DHT22;6225;52.720;8.276;2022-07-23T14:06:08;22.20;99.90
12321;DHT22;6225;52.720;8.276;2022-07-23T14:08:53;22.30;99.90
12321;DHT22;6225;52.720;8.276;2022-07-23T14:11:37;22.30;99.90
12321;DHT22;6225;52.720;8.276;2022-07-23T14:14:22;22.30;99.90
12321;DHT22;6225;52.720;8.276;2022-07-23T14:17:06;22.40;99.90
12321;DHT22;6225;52.720;8.276;2022-07-23T14:19:50;22.40;99.90
12321;DHT22;6225;52.720;8.276;2022-07-23T14:22:34;22.40;99.90
12321;DHT22;6225;52.720;8.276;2022-07-23T14:25:18;22.30;99.90
12321;DHT22;6225;52.720;8.276;2022-07-23T14:28:03;22.20;99.90
12321;DHT22;6225;52.720;8.276;2022-07-23T14:30:47;22.20;99.90
12321;DHT22;6225;52.720;8.276;2022-07-23T14:33:31;22.10;99.90
12321;DHT22;6225;52.720;8.276;2022-07-23T14:36:16;22.00;99.90
12321;DHT22;6225;52.720;8.276;2022-07-23T14:39:00;22.10;99.90
12321;DHT22;6225;52.720;8.276;2022-07-23T14:41:44;22.20;99.90
12321;DHT22;6225;52.720;8.276;2022-07-23T14:44:29;22.30;99.90
12321;DHT22;6225;52.720;8.276;2022-07-23T14:47:13;22.30;99.90
12321;DHT22;6225;52.720;8.276;2022-07-23T14:49:57;22.40;99.90
12321;DHT22;6225;52.720;8.276;2022-07-23T14:52:41;22.40;99.90
12321;DHT22;6225;52.720;8.276;2022-07-23T14:55:25;22.40;99.90
12321;DHT22;6225;52.720;8.276;2022-07-23T14:58:09;22.30;99.90
12321;DHT22;6225;52.720;8.276;2022-07-23T15:00:53;22.20;99.90
12321;DHT22;6225;52.720;8.276;2022-07-23T15:03:38;22.10;99.90
12321;DHT22;6225;52.720;8.276;2022-07-23T15:06:22;22.30;99.90
12321;DHT22;6225;52.720;8.276;2022-07-23T15:09:07;22.30;99.90
12321;DHT22;6225;52.720;8.276;2022-07-23T15:11:51;22.40;99.90
12321;DHT22;6225;52.720;8.276;2022-07-23T15:14:35;22.50;99.90
12321;DHT22;6225;52.720;8.276;2022-07-23T15:17:19;22.50;99.90
12321;DHT22;6225;52.720;8.276;2022-07-23T15:20:04;22.50;99.90
12321;DHT22;6225;52.720;8.276;2022-07-23T15:22:48;22.40;99.90
12321;DHT22;6225;52.720;8.276;2022-07-23T15:25:32;22.30;99.90
12321;DHT22;6225;52.720;8.276;2022-07-23T15:28:16;22.40;99.90
12321;DHT22;6225;52.720;8.276;2022-07-23T15:31:01;22.30;99.90
12321;DHT22;6225;52.720;8.276;2022-07-23T15:33:45;22.30;99.90
12321;DHT22;6225;52.720;8.276;2022-07-23T15:36:30;22.40;99.90
12321;DHT22;6225;52.720;8.276;2022-07-23T15:39:14;22.40;99.90
12321;DHT22;6225;52.720;8.276;2022-07-23T15:42:01;22.40;99.90
12321;DHT22;6225;52.720;8.276;2022-07-23T15:44:46;22.40;99.90
12321;DHT22;6225;52.720;8.276;2022-07-23T15:47:30;22.30;99.90
12321;DHT22;6225;52.720;8.276;2022-07-23T15:50:15;22.30;99.90
12321;DHT22;6225;52.720;8.276;2022-07-23T15:52:59;22.30;99.90
12321;DHT22;6225;52.720;8.276;2022-07-23T15:55:45;22.40;99.90
12321;DHT22;6225;52.720;8.276;2022-07-23T15:58:29;22.40;99.90
12321;DHT22;6225;52.720;8.276;2022-07-23T16:01:13;22.50;99.90
12321;DHT22;6225;52.720;8.276;2022-07-23T16:03:58;22.40;99.90
12321;DHT22;6225;52.720;8.276;2022-07-23T16:06:42;22.30;99.90
12321;DHT22;6225;52.720;8.276;2022-07-23T16:09:26;22.30;99.90
12321;DHT22;6225;52.720;8.276;2022-07-23T16:12:10;22.30;99.90
12321;DHT22;6225;52.720;8.276;2022-07-23T16:14:54;22.30;99.90
12321;DHT22;6225;52.720;8.276;2022-07-23T16:17:38;22.30;99.90
12321;DHT22;6225;52.720;8.276;2022-07-23T16:20:23;22.40;99.90
12321;DHT22;6225;52.720;8.276;2022-07-23T16:23:07;22.40;99.90
12321;DHT22;6225;52.720;8.276;2022-07-23T16:25:51;22.40;99.90
12321;DHT22;6225;52.720;8.276;2022-07-23T16:28:36;22.40;99.90
12321;DHT22;6225;52.720;8.276;2022-07-23T16:31:20;22.50;99.90
12321;DHT22;6225;52.720;8.276;2022-07-23T16:34:05;22.50;99.90
12321;DHT22;6225;52.720;8.276;2022-07-23T16:36:49;22.50;99.90
12321;DHT22;6225;52.720;8.276;2022-07-23T16:39:33;22.50;99.90
12321;DHT22;6225;52.720;8.276;2022-07-23T16:42:17;22.30;99.90
12321;DHT22;6225;52.720;8.276;2022-07-23T16:45:03;22.30;99.90
12321;DHT22;6225;52.720;8.276;2022-07-23T16:47:47;22.30;99.90
12321;DHT22;6225;52.720;8.276;2022-07-23T16:50:31;22.30;99.90
12321;DHT22;6225;52.720;8.276;2022-07-23T16:53:16;22.30;99.90
12321;DHT22;6225;52.720;8.276;2022-07-23T16:56:00;22.40;99.90
12321;DHT22;6225;52.720;8.276;2022-07-23T16:58:44;22.50;99.90
12321;DHT22;6225;52.720;8.276;2022-07-23T17:01:29;22.50;99.90
12321;DHT22;6225;52.720;8.276;2022-07-23T17:04:13;22.50;99.90
12321;DHT22;6225;52.720;8.276;2022-07-23T17:06:57;22.50;99.90
12321;DHT22;6225;52.720;8.276;2022-07-23T17:09:46;22.40;99.90
12321;DHT22;6225;52.720;8.276;2022-07-23T17:12:30;22.30;99.90
12321;DHT22;6225;52.720;8.276;2022-07-23T17:15:14;22.40;99.90
12321;DHT22;6225;52.720;8.276;2022-07-23T17:17:58;22.30;99.90
12321;DHT22;6225;52.720;8.276;2022-07-23T17:20:42;22.30;99.90
12321;DHT22;6225;52.720;8.276;2022-07-23T17:23:26;22.30;99.90
12321;DHT22;6225;52.720;8.276;2022-07-23T17:26:12;22.30;99.90
12321;DHT22;6225;52.720;8.276;2022-07-23T17:28:56;22.30;99.90
12321;DHT22;6225;52.720;8.276;2022-07-23T17:31:41;22.30;99.90
12321;DHT22;6225;52.720;8.276;2022-07-23T17:34:25;22.30;99.90
12321;DHT22;6225;52.720;8.276;2022-07-23T17:37:11;22.30;99.90
12321;DHT22;6225;52.720;8.276;2022-07-23T17:39:55;22.30;99.90
12321;DHT22;6225;52.720;8.276;2022-07-23T17:42:39;22.20;99.90
12321;DHT22;6225;52.720;8.276;2022-07-23T17:45:24;22.10;99.90
12321;DHT22;6225;52.720;8.276;2022-07-23T17:48:08;22.00;99.90
12321;DHT22;6225;52.720;8.276;2022-07-23T17:50:53;22.00;99.90
12321;DHT22;6225;52.720;8.276;2022-07-23T17:53:38;22.00;99.90
12321;DHT22;6225;52.720;8.276;2022-07-23T17:56:22;21.90;99.90
12321;DHT22;6225;52.720;8.276;2022-07-23T17:59:06;21.90;99.90